Salemburg, North Carolina
Current Conditions -  °F | °C
As of 4:15 PM on Saturday 22 Nov 2014 (Local Time) from KCTZ Reporting Station
Clear Clear  
Wind Chill: 57°   Ceiling: Unl
Heat Index: 57°   Visibility: 10mi
Dew Point: 29°   Wind: 0mph
Humidity: 35%   Direction: NA
Pressure: 30.41"   Gusts: NA
Location:  35.02°N, 78.5°W
Report Text: KCTZ 222115Z AUTO 00000KT 10SM CLR 14/M01 A3041 RMK AO2 T01411014
Loading
Personal Weather Stations






























Interactive Weather Map New forecast layout! Learn more

10-Day Weather Forecast

Advertisements
Track Severe Weather on mobile